Aviation WX

[Source: ADDS]
METAR
KFKL 181656Z AUTO 23009G20KT 9SM -SN CLR M08/M13 A3010 RMK AO2 SNB02 SLP226 P0000 T10781133 FZRANO =
TAF
KFKL 181137Z 1812/1912 23007KT P6SM SKC FM181400 23008G18KT P6SM SKC FM190200 22008KT P6SM SKC =